Time;durP1;ratioP1;P1;durP2;ratioP2;P2;SDS_P1;SDS_P2;PMS_P1;PMS_P2;Temp;Humidity;BMP_temperature;BMP_pressure;BME280_temperature;BME280_humidity;BME280_pressure;Samples;Min_cycle;Max_cycle;Signal;HPM_P1;HPM_P2
2022/02/20 00:02:06;;;;;;;4.53;2.60;;;;;;;2.55;77.74;97461.84;5013189;28;20075;-80
2022/02/20 00:04:32;;;;;;;4.60;2.20;;;;;;;2.45;78.08;97442.31;5023402;28;20095;-80
2022/02/20 00:06:58;;;;;;;3.75;2.67;;;;;;;2.41;77.99;97438.94;5004137;28;20568;-80
2022/02/20 00:09:23;;;;;;;3.97;2.50;;;;;;;2.48;77.90;97455.09;5007032;28;20045;-80
2022/02/20 00:11:49;;;;;;;5.18;2.55;;;;;;;2.49;77.61;97444.81;4992582;28;20133;-78
2022/02/20 00:14:15;;;;;;;3.92;2.40;;;;;;;2.41;77.43;97457.75;5023425;28;20041;-80
2022/02/20 00:16:42;;;;;;;4.28;2.45;;;;;;;2.36;77.83;97454.38;4974775;28;20052;-80
2022/02/20 00:19:09;;;;;;;3.80;2.50;;;;;;;2.32;77.48;97450.16;5018817;28;20045;-78
2022/02/20 00:21:36;;;;;;;3.95;2.58;;;;;;;2.36;77.57;97456.13;4997348;28;20371;-77
2022/02/20 00:24:03;;;;;;;5.15;2.40;;;;;;;2.37;78.20;97452.69;5020814;28;20037;-78
2022/02/20 00:26:29;;;;;;;4.35;2.70;;;;;;;2.38;78.04;97452.66;5003867;28;20571;-79
2022/02/20 00:28:55;;;;;;;3.25;2.10;;;;;;;2.34;78.07;97440.72;4984949;28;20033;-80
2022/02/20 00:31:22;;;;;;;4.57;2.55;;;;;;;2.17;78.04;97414.44;4992812;28;20045;-80
2022/02/20 00:33:47;;;;;;;5.38;2.20;;;;;;;2.32;77.79;97439.06;4992093;28;20041;-79
2022/02/20 00:36:13;;;;;;;4.05;2.55;;;;;;;2.29;78.12;97432.25;5009401;28;20410;-80
2022/02/20 00:38:39;;;;;;;4.90;2.67;;;;;;;2.24;77.99;97421.19;5030472;28;20128;-78
2022/02/20 00:41:05;;;;;;;4.03;2.40;;;;;;;2.20;78.12;97422.09;5023103;28;20049;-80
2022/02/20 00:43:31;;;;;;;5.00;2.67;;;;;;;2.18;77.67;97418.72;5015910;28;20045;-80
2022/02/20 00:45:58;;;;;;;3.92;2.47;;;;;;;2.19;78.06;97425.53;4987265;28;20048;-80
2022/02/20 00:48:23;;;;;;;5.18;2.58;;;;;;;2.29;78.33;97436.53;4996864;28;20050;-79
2022/02/20 00:50:50;;;;;;;3.30;2.30;;;;;;;2.28;77.95;97430.56;5022293;28;20044;-79
2022/02/20 00:53:16;;;;;;;4.25;2.70;;;;;;;2.28;78.02;97433.13;5003482;28;20042;-79
2022/02/20 00:55:43;;;;;;;3.45;2.40;;;;;;;2.29;77.86;97437.41;5014859;28;20033;-80
2022/02/20 00:58:09;;;;;;;2.67;1.90;;;;;;;2.32;78.42;97434.75;5006327;28;20097;-80
2022/02/20 01:00:36;;;;;;;4.72;2.13;;;;;;;2.28;78.30;97433.13;5032723;28;20156;-79
2022/02/20 01:03:03;;;;;;;3.63;2.22;;;;;;;2.28;77.90;97425.44;5020868;28;20057;-78
2022/02/20 01:05:29;;;;;;;3.30;2.15;;;;;;;2.28;77.91;97422.88;4998922;28;20038;-80
2022/02/20 01:07:55;;;;;;;5.05;2.22;;;;;;;2.31;77.67;97425.38;4987189;28;20033;-78
2022/02/20 01:10:21;;;;;;;3.60;2.40;;;;;;;2.31;78.26;97438.22;5007495;28;20128;-82
2022/02/20 01:12:47;;;;;;;2.75;2.20;;;;;;;2.31;78.32;97430.53;5023601;28;21612;-80
2022/02/20 01:15:14;;;;;;;4.65;2.42;;;;;;;2.33;78.09;97431.31;5025807;28;20064;-81
2022/02/20 01:17:40;;;;;;;3.78;2.03;;;;;;;2.34;77.82;97435.59;5025684;28;20098;-80
2022/02/20 01:20:07;;;;;;;4.00;2.40;;;;;;;2.34;78.17;97437.31;5014267;28;20048;-79
2022/02/20 01:22:33;;;;;;;3.53;2.15;;;;;;;2.31;78.04;97429.66;5024968;28;20060;-79
2022/02/20 01:24:58;;;;;;;6.13;2.60;;;;;;;2.21;78.19;97423.81;5027191;28;20038;-79
2022/02/20 01:27:25;;;;;;;4.90;2.25;;;;;;;2.20;77.92;97419.53;5030591;28;20045;-79
2022/02/20 01:29:52;;;;;;;3.53;2.10;;;;;;;2.21;78.23;97434.06;5011995;28;20075;-79
2022/02/20 01:32:19;;;;;;;4.07;2.35;;;;;;;2.20;78.33;97427.25;5028496;28;20045;-82
2022/02/20 01:34:45;;;;;;;2.92;2.30;;;;;;;2.11;78.01;97429.03;5011165;28;20132;-80
2022/02/20 01:37:11;;;;;;;3.08;2.08;;;;;;;1.98;78.01;97417.25;4994574;28;20052;-79
2022/02/20 01:39:36;;;;;;;3.15;1.90;;;;;;;2.02;78.07;97436.00;4998110;28;20813;-80
2022/02/20 01:42:10;;;;;;;2.97;2.20;;;;;;;1.89;78.10;97435.31;5010605;28;21451;-80
2022/02/20 01:44:41;;;;;;;2.47;1.85;;;;;;;1.73;78.68;97399.59;5029909;28;20072;-82
2022/02/20 01:47:09;;;;;;;2.75;2.03;;;;;;;1.89;78.66;97446.44;5015085;28;20473;-79
2022/02/20 01:49:40;;;;;;;2.45;1.80;;;;;;;1.79;77.94;97442.25;5041336;28;20045;-80
2022/02/20 01:52:13;;;;;;;3.78;2.17;;;;;;;1.59;78.30;97420.25;5034599;28;20042;-83
2022/02/20 01:54:38;;;;;;;2.95;1.67;;;;;;;1.54;78.34;97426.31;5030436;28;20046;-81
2022/02/20 01:57:05;;;;;;;2.13;1.70;;;;;;;1.39;78.67;97406.81;5028183;28;20044;-80
2022/02/20 01:59:51;;;;;;;3.58;2.00;;;;;;;1.52;78.32;97433.16;5037237;28;20402;-81
2022/02/20 02:02:36;;;;;;;3.90;1.90;;;;;;;1.54;79.04;97450.25;5010567;28;20049;-78
2022/02/20 02:05:11;;;;;;;2.47;1.90;;;;;;;1.54;78.84;97437.41;4994274;28;20056;-80
2022/02/20 02:07:41;;;;;;;2.88;2.00;;;;;;;1.56;79.19;97445.09;5008698;28;20143;-79
2022/02/20 02:10:21;;;;;;;3.00;2.00;;;;;;;1.49;79.22;97434.06;5011290;28;20053;-79
2022/02/20 02:13:03;;;;;;;2.33;1.63;;;;;;;1.56;79.25;97440.78;5013661;28;20056;-81
2022/02/20 02:15:51;;;;;;;3.38;1.85;;;;;;;1.59;78.58;97450.19;4996832;28;20443;-82
2022/02/20 02:18:48;;;;;;;3.28;1.90;;;;;;;1.47;79.02;97428.09;4998353;28;20045;-81
2022/02/20 02:21:38;;;;;;;2.40;1.52;;;;;;;1.51;78.81;97445.13;5011251;28;20056;-80
2022/02/20 02:24:30;;;;;;;2.28;1.70;;;;;;;1.47;78.92;97425.53;4993869;28;20065;-81
2022/02/20 02:27:20;;;;;;;1.92;1.42;;;;;;;1.55;79.52;97451.06;4990227;28;20140;-80
2022/02/20 02:30:08;;;;;;;1.73;1.50;;;;;;;1.56;78.92;97450.22;5005513;28;20130;-81
2022/02/20 02:32:34;;;;;;;3.28;1.40;;;;;;;1.59;79.08;97456.16;4992862;28;20033;-80
2022/02/20 02:35:00;;;;;;;1.67;1.40;;;;;;;1.61;79.18;97462.09;5007904;28;20080;-80
2022/02/20 02:37:28;;;;;;;2.25;1.52;;;;;;;1.45;79.43;97429.81;5006691;28;20044;-80
2022/02/20 02:39:54;;;;;;;2.17;1.30;;;;;;;1.47;79.31;97435.78;5021479;28;20041;-81
2022/02/20 02:42:20;;;;;;;1.35;1.13;;;;;;;1.56;79.21;97458.72;4992598;28;20045;-81
2022/02/20 02:44:47;;;;;;;2.53;1.30;;;;;;;1.63;79.66;97467.25;4994468;28;21413;-81
2022/02/20 02:47:13;;;;;;;3.28;1.20;;;;;;;1.56;79.09;97447.66;5009964;28;20096;-79
2022/02/20 02:49:39;;;;;;;1.92;1.23;;;;;;;1.60;79.40;97455.28;4992671;28;20049;-79
2022/02/20 02:52:06;;;;;;;1.17;1.08;;;;;;;1.52;79.70;97451.09;4990837;28;20127;-80
2022/02/20 02:54:32;;;;;;;1.80;1.30;;;;;;;1.63;79.46;97460.38;4994092;28;20060;-79
2022/02/20 02:56:58;;;;;;;3.55;1.33;;;;;;;1.56;79.09;97452.78;4994308;28;20041;-81
2022/02/20 02:59:25;;;;;;;1.52;1.25;;;;;;;1.61;78.98;97466.41;5006725;28;20045;-79
2022/02/20 03:01:54;;;;;;;2.50;1.35;;;;;;;1.44;79.74;97428.94;5019504;28;20061;-79
2022/02/20 03:04:20;;;;;;;1.40;1.10;;;;;;;1.33;79.05;97426.50;5002757;28;20038;-80
2022/02/20 03:06:47;;;;;;;3.45;1.33;;;;;;;1.59;78.96;97463.84;5028833;28;20744;-80
2022/02/20 03:09:13;;;;;;;1.65;1.20;;;;;;;1.53;79.63;97453.66;4999271;28;20041;-81
2022/02/20 03:11:40;;;;;;;3.25;1.10;;;;;;;1.56;79.73;97469.00;5000107;28;20568;-81
2022/02/20 03:14:12;;;;;;;1.50;1.15;;;;;;;1.51;79.89;97457.94;5009922;28;20453;-79
2022/02/20 03:16:37;;;;;;;3.78;1.50;;;;;;;1.60;79.51;97468.09;4993811;28;20041;-78
2022/02/20 03:19:06;;;;;;;1.60;1.25;;;;;;;1.58;79.52;97457.00;5010320;28;20049;-79
2022/02/20 03:21:35;;;;;;;1.50;1.30;;;;;;;1.65;79.59;97475.75;4977789;28;20045;-79
2022/02/20 03:24:03;;;;;;;1.67;1.10;;;;;;;1.58;79.80;97463.88;5021917;28;20051;-81
2022/02/20 03:26:29;;;;;;;2.20;1.02;;;;;;;1.68;79.99;97483.41;4989438;28;20494;-79
2022/02/20 03:28:58;;;;;;;1.63;1.20;;;;;;;1.34;79.51;97423.06;5008697;28;20049;-80
2022/02/20 03:31:28;;;;;;;3.35;1.20;;;;;;;1.57;79.69;97462.16;4991849;28;20041;-82
2022/02/20 03:33:54;;;;;;;1.80;1.20;;;;;;;1.57;79.52;97454.47;4983285;28;20052;-80
2022/02/20 03:36:20;;;;;;;1.67;1.13;;;;;;;1.61;79.24;97459.53;4981664;28;20525;-80
2022/02/20 03:38:46;;;;;;;2.17;1.52;;;;;;;1.69;79.65;97482.53;4990880;28;20073;-79
2022/02/20 03:41:16;;;;;;;3.15;1.40;;;;;;;1.64;79.50;97468.94;5008034;28;20050;-79
2022/02/20 03:43:42;;;;;;;1.30;1.20;;;;;;;1.67;79.25;97481.69;5009842;28;20048;-80
2022/02/20 03:46:08;;;;;;;3.00;1.45;;;;;;;1.67;79.69;97473.19;5028475;28;20045;-81
2022/02/20 03:48:52;;;;;;;2.15;1.33;;;;;;;1.53;79.38;97456.22;5009888;28;20067;-80
2022/02/20 03:51:37;;;;;;;1.85;1.35;;;;;;;1.62;79.13;97470.66;5023147;28;20041;-80
2022/02/20 03:54:03;;;;;;;1.30;1.15;;;;;;;1.69;79.30;97487.66;4993252;28;20045;-79
2022/02/20 03:56:28;;;;;;;1.55;1.20;;;;;;;1.63;79.59;97482.63;5021086;28;20063;-80
2022/02/20 03:58:55;;;;;;;2.83;1.40;;;;;;;1.70;79.34;97499.63;5023700;28;20042;-80
2022/02/20 04:01:23;;;;;;;3.30;1.35;;;;;;;1.67;79.64;97489.41;5004494;28;20050;-80
2022/02/20 04:03:50;;;;;;;1.92;1.20;;;;;;;1.59;79.20;97479.22;5002659;28;20053;-79
2022/02/20 04:06:16;;;;;;;1.30;1.20;;;;;;;1.67;79.00;97493.69;4991496;28;20445;-80
2022/02/20 04:08:47;;;;;;;1.30;1.20;;;;;;;1.56;79.34;97481.81;4988187;28;20045;-82
2022/02/20 04:11:13;;;;;;;1.60;1.05;;;;;;;1.58;79.20;97489.50;4993342;28;20144;-80
2022/02/20 04:13:55;;;;;;;1.67;1.20;;;;;;;1.62;79.42;97502.25;5008333;28;20037;-80
2022/02/20 04:16:49;;;;;;;2.00;1.20;;;;;;;1.65;79.23;97514.22;4996426;28;20045;-80
2022/02/20 04:19:15;;;;;;;1.58;1.00;;;;;;;1.54;79.65;97486.13;4995736;28;20048;-79
2022/02/20 04:21:44;;;;;;;4.32;1.30;;;;;;;1.65;79.76;97507.38;4996595;28;20580;-81
2022/02/20 04:24:17;;;;;;;2.80;1.30;;;;;;;1.59;79.51;97507.41;4994838;28;20521;-80
2022/02/20 04:26:43;;;;;;;1.88;1.00;;;;;;;1.71;79.04;97532.09;4994792;28;20064;-80
2022/02/20 04:29:17;;;;;;;2.45;1.30;;;;;;;1.49;79.07;97485.31;5010089;28;20049;-81
2022/02/20 04:31:42;;;;;;;1.50;1.10;;;;;;;1.64;79.36;97527.91;5025448;28;20037;-80
2022/02/20 04:34:09;;;;;;;1.45;1.10;;;;;;;1.75;79.44;97533.78;5002694;28;20653;-82
2022/02/20 04:36:35;;;;;;;1.25;0.90;;;;;;;1.68;79.25;97526.16;5024139;28;20038;-81
2022/02/20 04:39:04;;;;;;;1.92;1.10;;;;;;;1.73;78.91;97525.25;5024032;28;20048;-80
2022/02/20 04:41:30;;;;;;;3.70;1.33;;;;;;;1.83;79.11;97545.69;5025294;28;20512;-81
2022/02/20 04:43:58;;;;;;;1.65;0.93;;;;;;;1.85;79.08;97544.78;5025933;28;20053;-80
2022/02/20 04:46:24;;;;;;;1.35;0.90;;;;;;;1.70;79.08;97517.56;5031797;28;20133;-81
2022/02/20 04:48:51;;;;;;;0.90;0.88;;;;;;;1.81;79.06;97550.81;5029399;28;20152;-80
2022/02/20 04:51:36;;;;;;;2.92;1.40;;;;;;;1.79;78.55;97550.84;5016512;28;20041;-80
2022/02/20 04:54:04;;;;;;;1.98;0.98;;;;;;;1.70;79.08;97547.50;4995814;28;20140;-80
2022/02/20 04:56:31;;;;;;;2.35;0.90;;;;;;;1.76;79.02;97557.72;5007389;28;20038;-82
2022/02/20 04:58:57;;;;;;;1.58;0.93;;;;;;;1.75;79.21;97546.59;5008485;28;20049;-81
2022/02/20 05:01:34;;;;;;;1.42;1.20;;;;;;;1.82;78.92;97565.34;5010747;28;20053;-80
2022/02/20 05:04:35;;;;;;;1.77;1.10;;;;;;;1.77;78.89;97555.13;4997049;28;20041;-81
2022/02/20 05:07:02;;;;;;;2.03;1.10;;;;;;;1.79;78.86;97562.78;5006559;28;20044;-80
2022/02/20 05:09:36;;;;;;;1.25;1.10;;;;;;;1.87;79.20;97581.53;5018998;28;20041;-81
2022/02/20 05:12:04;;;;;;;2.05;1.00;;;;;;;1.67;78.99;97538.13;5008504;28;20203;-81
2022/02/20 05:14:31;;;;;;;1.27;0.98;;;;;;;1.82;78.83;97570.47;4995677;28;20482;-82
2022/02/20 05:17:05;;;;;;;2.17;1.33;;;;;;;1.54;79.21;97531.41;4990157;28;20529;-82
2022/02/20 05:19:50;;;;;;;1.20;1.10;;;;;;;1.67;78.93;97561.19;4995206;28;20046;-83
2022/02/20 05:22:17;;;;;;;2.95;1.02;;;;;;;1.84;78.92;97584.13;5016424;28;20042;-81
2022/02/20 05:24:49;;;;;;;1.83;1.08;;;;;;;2.01;79.08;97601.06;5026214;28;20041;-81
2022/02/20 05:27:16;;;;;;;2.08;0.95;;;;;;;1.87;78.61;97588.41;5019464;28;20048;-80
2022/02/20 05:29:42;;;;;;;1.30;1.20;;;;;;;2.02;78.78;97603.63;4999469;28;20041;-82
2022/02/20 05:32:23;;;;;;;1.55;1.10;;;;;;;1.90;78.53;97593.47;5013242;28;20798;-79
2022/02/20 05:34:58;;;;;;;1.63;1.10;;;;;;;1.92;78.53;97589.19;5010869;28;20065;-82
2022/02/20 05:37:29;;;;;;;1.88;1.20;;;;;;;1.85;79.35;97574.72;4981607;28;20044;-82
2022/02/20 05:39:59;;;;;;;1.58;1.10;;;;;;;2.08;79.00;97612.97;5011936;28;20164;-80
2022/02/20 05:42:26;;;;;;;2.42;1.10;;;;;;;2.07;79.06;97611.28;4995204;28;20056;-82
2022/02/20 05:45:01;;;;;;;1.42;1.23;;;;;;;2.08;78.70;97621.53;4998055;28;20398;-80
2022/02/20 05:47:28;;;;;;;1.75;0.85;;;;;;;2.05;78.77;97608.75;4987751;28;20034;-81
2022/02/20 05:49:55;;;;;;;1.20;0.90;;;;;;;2.13;79.00;97621.50;5006484;28;20055;-81
2022/02/20 05:52:21;;;;;;;1.10;1.00;;;;;;;1.90;78.85;97578.94;5027150;28;20061;-81
2022/02/20 05:54:47;;;;;;;1.17;0.98;;;;;;;2.02;78.50;97608.75;5031033;28;20045;-81
2022/02/20 05:57:14;;;;;;;1.42;0.90;;;;;;;2.14;78.12;97630.88;5001895;28;20041;-80
2022/02/20 05:59:48;;;;;;;1.33;1.10;;;;;;;2.01;78.57;97619.88;4997944;28;20168;-80
2022/02/20 06:02:15;;;;;;;0.88;0.88;;;;;;;2.15;78.50;97642.00;5018295;28;20084;-81
2022/02/20 06:04:50;;;;;;;2.17;1.15;;;;;;;1.49;78.22;97547.66;5007658;28;20183;-86
2022/02/20 06:07:16;;;;;;;2.00;1.20;;;;;;;1.64;78.31;97581.75;5032927;28;20041;-83
2022/02/20 06:10:09;;;;;;;2.70;1.10;;;;;;;1.83;78.46;97633.72;5007116;28;20183;-85
2022/02/20 06:13:01;;;;;;;2.30;1.20;;;;;;;1.66;78.97;97605.63;5009364;28;20045;-84
2022/02/20 06:15:54;;;;;;;3.85;1.30;;;;;;;1.74;78.46;97639.78;5018321;28;20072;-84
2022/02/20 06:18:32;;;;;;;4.53;2.58;;;;;;;1.55;78.22;97615.16;5012355;28;20506;-82
2022/02/20 06:21:17;;;;;;;1.83;1.20;;;;;;;1.52;78.20;97620.28;5016224;28;20041;-85
2022/02/20 06:23:53;;;;;;;1.65;1.20;;;;;;;1.16;78.61;97562.47;4994543;28;20385;-81
2022/02/20 06:26:37;;;;;;;1.48;1.38;;;;;;;1.69;78.94;97656.06;5024521;28;20096;-81
2022/02/20 06:29:04;;;;;;;2.35;1.40;;;;;;;1.71;78.72;97664.59;5010497;28;20501;-79
2022/02/20 06:31:30;;;;;;;1.40;1.27;;;;;;;1.41;78.26;97613.53;5000631;28;20160;-82
2022/02/20 06:33:56;;;;;;;2.28;1.63;;;;;;;1.48;79.03;97642.53;5013900;28;20652;-82
2022/02/20 06:36:23;;;;;;;4.00;1.67;;;;;;;1.43;78.64;97623.78;5031437;28;20057;-82
2022/02/20 06:38:49;;;;;;;4.05;2.47;;;;;;;1.64;78.62;97651.81;5012853;28;20059;-82
2022/02/20 06:41:15;;;;;;;7.53;3.58;;;;;;;1.45;78.78;97616.94;5010544;28;20037;-81
2022/02/20 06:43:48;;;;;;;17.45;6.82;;;;;;;1.82;78.98;97674.78;5024521;28;20045;-83
2022/02/20 06:46:38;;;;;;;15.60;6.32;;;;;;;1.76;79.00;97648.31;5003007;28;20076;-82
2022/02/20 06:49:14;;;;;;;19.75;7.90;;;;;;;2.06;78.71;97696.81;5012318;28;20017;-83
2022/02/20 06:51:51;;;;;;;15.50;6.68;;;;;;;1.98;78.68;97667.81;4986303;28;20088;-82
2022/02/20 06:54:35;;;;;;;17.48;6.30;;;;;;;2.29;79.01;97717.16;5014118;28;20099;-84
2022/02/20 06:57:20;;;;;;;10.38;4.25;;;;;;;2.40;78.95;97735.88;4993508;28;20096;-81
2022/02/20 06:59:46;;;;;;;5.55;3.20;;;;;;;2.41;78.97;97740.13;5009836;28;20128;-80
2022/02/20 07:02:14;;;;;;;4.15;2.15;;;;;;;2.37;79.12;97719.66;4991977;28;20113;-83
2022/02/20 07:04:40;;;;;;;5.90;2.05;;;;;;;2.62;78.91;97758.78;4995243;28;20034;-79
2022/02/20 07:07:05;;;;;;;4.85;1.67;;;;;;;2.73;79.10;97766.38;4987049;28;20137;-80
2022/02/20 07:09:31;;;;;;;3.38;1.50;;;;;;;2.76;78.95;97765.53;5005790;28;20038;-79
2022/02/20 07:12:00;;;;;;;2.10;1.85;;;;;;;2.94;79.38;97765.31;5008503;28;20045;-80
2022/02/20 07:14:26;;;;;;;2.30;1.52;;;;;;;2.98;79.18;97733.56;5005488;28;20037;-80
2022/02/20 07:16:54;;;;;;;1.65;1.30;;;;;;;3.20;78.64;97766.72;4992972;28;20968;-83
2022/02/20 07:19:30;;;;;;;1.75;1.30;;;;;;;2.84;78.44;97723.47;5010672;28;20047;-80
2022/02/20 07:21:56;;;;;;;1.55;1.30;;;;;;;2.91;78.87;97728.50;5011112;28;20613;-84
2022/02/20 07:24:22;;;;;;;2.00;1.50;;;;;;;3.38;78.49;97818.81;5023886;28;20037;-83
2022/02/20 07:26:48;;;;;;;2.10;1.48;;;;;;;3.11;78.17;97767.69;4992861;28;20040;-80
2022/02/20 07:29:17;;;;;;;1.98;1.40;;;;;;;2.93;78.19;97755.91;5010744;28;20089;-82
2022/02/20 07:31:49;;;;;;;1.80;1.15;;;;;;;2.85;78.45;97773.13;5015147;28;20051;-82
2022/02/20 07:34:19;;;;;;;2.00;1.20;;;;;;;3.30;77.68;97822.31;4982770;28;20129;-80
2022/02/20 07:36:48;;;;;;;1.20;1.10;;;;;;;3.20;77.93;97789.88;4996071;28;20041;-80
2022/02/20 07:39:15;;;;;;;1.55;1.23;;;;;;;3.79;78.32;97862.91;5033874;28;20037;-83
2022/02/20 07:41:47;;;;;;;2.92;1.30;;;;;;;3.90;77.91;97789.84;5020852;28;20083;-81
2022/02/20 07:44:21;;;;;;;1.30;0.98;;;;;;;4.41;78.32;97775.34;5015338;28;20040;-80
2022/02/20 07:46:50;;;;;;;1.50;1.40;;;;;;;5.26;78.05;97832.31;5015193;28;20120;-81
2022/02/20 07:49:15;;;;;;;1.48;1.20;;;;;;;5.56;76.64;97854.06;5006304;28;20041;-84
2022/02/20 07:55:55;;;;;;;1.30;0.90;;;;;;;4.77;74.79;97829.72;5000634;28;20037;-82
2022/02/20 07:58:37;;;;;;;1.55;1.10;;;;;;;4.46;74.92;97871.44;5003651;28;20046;-80
2022/02/20 08:01:59;;;;;;;2.15;1.33;;;;;;;3.72;75.98;97796.13;5003681;28;20054;-85
2022/02/20 08:04:33;;;;;;;2.88;1.90;;;;;;;4.48;75.28;97920.34;4990907;28;20116;-82
2022/02/20 08:07:04;;;;;;;1.77;1.35;;;;;;;4.26;75.99;97852.84;4988244;28;20018;-85
2022/02/20 08:09:34;;;;;;;1.80;1.25;;;;;;;4.42;75.32;97861.19;4988689;28;20041;-82
2022/02/20 08:12:39;;;;;;;1.67;1.35;;;;;;;4.50;75.27;97851.63;4999215;28;20053;-81
2022/02/20 08:15:38;;;;;;;1.30;1.05;;;;;;;4.81;75.22;97870.03;4958508;28;20048;-84
2022/02/20 08:18:34;;;;;;;3.53;1.48;;;;;;;4.64;75.18;97829.06;4984876;28;20078;-82
2022/02/20 08:21:01;;;;;;;2.83;1.40;;;;;;;5.68;75.02;97958.78;4990597;28;20530;-85
2022/02/20 08:23:27;;;;;;;1.88;1.20;;;;;;;5.80;74.58;97911.25;5009580;28;20044;-83
2022/02/20 08:25:53;;;;;;;1.83;1.25;;;;;;;5.82;74.03;97906.91;4987085;28;20513;-84
2022/02/20 08:28:19;;;;;;;1.95;1.35;;;;;;;6.27;73.79;97980.06;5003572;28;20042;-81
2022/02/20 08:31:01;;;;;;;2.72;1.10;;;;;;;6.02;73.54;97989.19;4999659;28;20042;-83
2022/02/20 08:33:28;;;;;;;1.67;1.35;;;;;;;5.82;73.31;97981.78;5021631;28;20038;-84
2022/02/20 08:35:54;;;;;;;1.75;1.38;;;;;;;5.87;73.92;97992.00;4993658;28;20037;-83
2022/02/20 08:38:25;;;;;;;1.75;1.10;;;;;;;5.90;73.48;97976.44;4997995;28;20049;-82
2022/02/20 08:41:18;;;;;;;2.70;1.70;;;;;;;6.44;72.31;98010.75;5012309;28;20030;-82
2022/02/20 08:43:47;;;;;;;2.10;1.33;;;;;;;7.36;74.44;97939.69;5019635;28;20081;-83
2022/02/20 08:46:12;;;;;;;1.33;0.90;;;;;;;8.93;73.45;97951.69;4996072;28;20548;-83
2022/02/20 08:48:43;;;;;;;0.95;0.70;;;;;;;10.02;72.02;97906.47;5005600;28;20038;-83
2022/02/20 08:54:29;;;;;;;1.52;0.80;;;;;;;14.72;69.20;97979.22;4951126;28;20088;-82
2022/02/20 08:56:55;;;;;;;1.10;1.00;;;;;;;15.98;64.16;98000.97;4964295;28;20050;-83
2022/02/20 08:59:30;;;;;;;3.92;1.70;;;;;;;16.81;62.24;97917.09;4981825;28;20049;-83
2022/02/20 09:01:57;;;;;;;1.23;1.10;;;;;;;18.36;55.41;98006.78;5023413;28;20056;-81
2022/02/20 09:04:34;;;;;;;1.48;0.80;;;;;;;17.67;53.27;97957.06;5018505;28;20068;-83
2022/02/20 09:07:00;;;;;;;1.70;1.20;;;;;;;16.49;51.70;97959.34;4982084;28;20069;-82
2022/02/20 09:09:26;;;;;;;1.98;1.50;;;;;;;15.37;50.83;98030.63;5026786;28;20120;-80
2022/02/20 09:11:56;;;;;;;1.58;0.95;;;;;;;13.78;50.70;98032.88;5010427;28;20037;-83
2022/02/20 09:14:33;;;;;;;1.60;1.30;;;;;;;12.21;51.07;97974.06;4996973;28;20129;-83
2022/02/20 09:17:23;;;;;;;1.10;0.90;;;;;;;11.18;50.52;98015.69;4998280;28;20037;-83
2022/02/20 09:20:12;;;;;;;1.60;1.00;;;;;;;10.69;52.58;98098.19;5013806;28;20205;-82
2022/02/20 09:23:32;;;;;;;1.00;0.90;;;;;;;9.82;53.13;97980.75;5023404;28;20037;-85
2022/02/20 09:26:07;;;;;;;0.80;0.80;;;;;;;12.64;55.72;98084.31;4999498;28;20501;-84
2022/02/20 09:28:45;;;;;;;2.17;0.70;;;;;;;14.34;54.35;97990.78;5010369;28;20049;-83
2022/02/20 09:31:50;;;;;;;1.70;0.80;;;;;;;16.88;51.17;98033.09;5012432;28;21203;-82
2022/02/20 09:34:25;;;;;;;1.10;1.00;;;;;;;17.97;47.71;98037.50;5012570;28;20465;-83
2022/02/20 09:37:12;;;;;;;1.17;0.80;;;;;;;17.67;45.18;98030.69;5008694;28;20211;-85
2022/02/20 09:39:38;;;;;;;0.93;0.80;;;;;;;16.86;44.21;98083.09;5022754;28;20502;-83
2022/02/20 09:42:07;;;;;;;1.92;1.67;;;;;;;15.15;44.06;98097.31;4990568;28;20044;-82
2022/02/20 09:44:39;;;;;;;1.85;1.48;;;;;;;14.45;45.09;98118.44;4997928;28;20528;-83
2022/02/20 09:47:15;;;;;;;1.00;0.90;;;;;;;12.93;45.00;98032.53;5008732;28;20529;-81
2022/02/20 09:50:09;;;;;;;2.03;0.88;;;;;;;12.08;45.36;98051.13;5026707;28;20037;-84
2022/02/20 09:56:28;;;;;;;0.93;0.88;;;;;;;11.52;45.80;98082.88;5010375;28;20525;-81
2022/02/20 09:59:07;;;;;;;1.02;0.90;;;;;;;11.03;46.42;98059.63;5024489;28;20044;-81
2022/02/20 10:01:38;;;;;;;1.85;1.08;;;;;;;11.06;45.64;98105.50;5008561;28;20081;-82
2022/02/20 10:04:16;;;;;;;1.67;1.00;;;;;;;10.45;45.65;98105.13;5012075;28;20060;-82
2022/02/20 10:06:50;;;;;;;1.35;0.90;;;;;;;10.01;45.18;98090.13;5026225;28;20037;-82
2022/02/20 10:10:02;;;;;;;1.75;1.27;;;;;;;9.49;46.04;98108.25;5008303;28;20034;-82
2022/02/20 10:12:30;;;;;;;1.30;1.00;;;;;;;9.04;46.13;98132.97;4968332;28;20053;-82
2022/02/20 10:15:17;;;;;;;0.80;0.80;;;;;;;9.00;47.15;98171.09;5024791;28;20037;-83
2022/02/20 10:17:56;;;;;;;1.40;1.17;;;;;;;8.87;47.05;98134.28;5011706;28;20049;-81
2022/02/20 10:20:58;;;;;;;1.58;1.20;;;;;;;9.12;47.00;98114.59;5015479;28;20573;-84
2022/02/20 10:23:59;;;;;;;1.05;0.90;;;;;;;8.93;46.07;98135.00;5029354;28;20063;-84
2022/02/20 10:27:10;;;;;;;1.45;1.17;;;;;;;8.80;45.96;98165.63;5015124;28;20052;-84
2022/02/20 10:30:22;;;;;;;1.60;1.20;;;;;;;9.06;46.72;98208.16;5025931;28;20615;-82
2022/02/20 10:33:19;;;;;;;1.30;1.10;;;;;;;8.35;46.27;98102.84;5005312;28;20041;-82
2022/02/20 10:35:51;;;;;;;1.58;0.98;;;;;;;8.57;46.02;98198.22;5008423;28;20053;-82
2022/02/20 10:38:31;;;;;;;1.45;1.10;;;;;;;8.41;46.61;98224.53;5011120;28;20442;-81
2022/02/20 10:41:03;;;;;;;1.85;1.50;;;;;;;7.45;46.47;98123.19;5013064;28;20584;-83
2022/02/20 10:43:50;;;;;;;1.10;0.90;;;;;;;7.94;47.13;98219.63;4978433;28;20046;-83
2022/02/20 10:46:20;;;;;;;3.28;1.70;;;;;;;7.37;46.56;98132.88;5010504;28;20049;-84
2022/02/20 10:49:01;;;;;;;2.85;1.60;;;;;;;7.81;47.49;98176.75;5007866;28;20441;-82
2022/02/20 10:52:13;;;;;;;;;;;;;;;;;;;;;
2022/02/20 10:55:08;;;;;;;2.40;1.92;;;;;;;6.89;46.80;98146.81;5001455;28;20041;-80
2022/02/20 10:57:49;;;;;;;2.92;1.20;;;;;;;6.76;47.05;98183.28;5017011;28;20041;-83
2022/02/20 11:00:33;;;;;;;1.40;0.88;;;;;;;6.35;47.28;98155.59;5016695;23;20055;-82
2022/02/20 11:03:12;;;;;;;2.15;0.90;;;;;;;6.61;48.00;98235.25;5032308;28;20049;-83
2022/02/20 11:05:48;;;;;;;1.73;0.95;;;;;;;5.91;47.60;98187.28;5034928;28;21386;-82
2022/02/20 11:08:43;;;;;;;;;;;;;;;;;;;;;
2022/02/20 11:11:39;;;;;;;1.95;1.10;;;;;;;5.10;48.75;98156.59;5021371;28;20131;-83
2022/02/20 11:14:14;;;;;;;2.20;1.27;;;;;;;5.35;48.56;98193.25;5028082;28;20124;-85
2022/02/20 11:16:51;;;;;;;1.40;1.13;;;;;;;5.91;49.23;98287.97;5020132;28;20633;-83
2022/02/20 11:19:23;;;;;;;1.10;1.00;;;;;;;5.86;49.41;98257.06;5050876;28;20028;-84
2022/02/20 11:21:54;;;;;;;1.40;1.00;;;;;;;6.08;49.05;98313.59;5060416;28;20064;-81
2022/02/20 11:24:23;;;;;;;2.28;1.00;;;;;;;5.77;48.95;98277.00;5053713;28;20509;-81
2022/02/20 11:29:50;;;;;;;1.13;0.90;;;;;;;4.77;49.36;98246.38;5043177;28;20078;-83
2022/02/20 11:32:36;;;;;;;1.35;0.80;;;;;;;4.85;49.84;98292.69;5024931;28;20033;-82
2022/02/20 11:35:12;;;;;;;1.10;1.00;;;;;;;5.18;49.78;98347.38;5043444;28;20053;-80
2022/02/20 11:37:56;;;;;;;2.42;1.08;;;;;;;4.30;49.78;98225.34;5018842;28;20059;-81
2022/02/20 11:40:47;;;;;;;1.77;0.82;;;;;;;5.08;50.04;98319.09;5009674;28;20056;-82
2022/02/20 11:43:41;;;;;;;1.00;0.88;;;;;;;5.31;49.27;98325.72;5025030;28;20060;-83
2022/02/20 11:46:25;;;;;;;2.28;1.05;;;;;;;5.11;49.73;98303.59;5046249;28;20501;-81
2022/02/20 11:49:19;;;;;;;1.38;0.80;;;;;;;5.56;50.23;98369.31;5047095;28;20047;-82
2022/02/20 11:52:15;;;;;;;1.85;1.10;;;;;;;5.55;49.96;98390.81;5049348;28;20056;-82
2022/02/20 11:54:57;;;;;;;2.22;0.90;;;;;;;5.54;49.30;98389.13;5022266;28;20065;-82
2022/02/20 11:57:33;;;;;;;2.75;0.80;;;;;;;5.26;49.26;98387.69;4994300;28;20048;-82
2022/02/20 12:00:02;;;;;;;3.03;2.10;;;;;;;5.14;49.66;98392.94;4995904;28;20482;-83
2022/02/20 12:03:18;;;;;;;;;;;;;;;;;;;;;
2022/02/20 12:06:21;;;;;;;2.17;0.80;;;;;;;5.16;50.17;98418.72;5043023;28;20061;-83
2022/02/20 12:09:38;;;;;;;2.08;0.80;;;;;;;4.58;49.83;98333.28;5013529;28;20047;-84
2022/02/20 12:12:33;;;;;;;1.15;0.60;;;;;;;4.32;50.16;98311.16;4966485;28;20120;-84
2022/02/20 12:15:43;;;;;;;1.10;0.77;;;;;;;4.96;50.18;98433.50;5062219;28;20060;-84
2022/02/20 12:18:15;;;;;;;0.85;0.70;;;;;;;4.93;50.32;98446.41;5044724;28;20060;-82
2022/02/20 12:20:54;;;;;;;4.20;0.90;;;;;;;4.96;50.57;98448.13;5033032;28;20072;-82
2022/02/20 12:23:49;;;;;;;0.77;0.70;;;;;;;4.86;50.00;98415.53;5047612;28;20033;-85
2022/02/20 12:26:46;;;;;;;0.65;0.60;;;;;;;4.98;49.50;98451.50;5004358;28;20041;-85
2022/02/20 12:29:19;;;;;;;0.88;0.77;;;;;;;4.84;50.44;98431.03;5035935;28;20517;-81
2022/02/20 12:32:43;;;;;;;2.17;1.15;;;;;;;4.92;49.77;98455.00;5024893;28;20094;-82
2022/02/20 12:35:17;;;;;;;2.35;0.90;;;;;;;4.68;49.73;98402.78;4943790;29;20104;-83